sensor_id;sensor_type;location;lat;lon;timestamp;pressure;altitude;pressure_sealevel;temperature;humidity
6899;BME280;3488;42.616;23.350;2023-03-08T00:00:22;62662.94;;;6.44;74.49
6899;BME280;3488;42.616;23.350;2023-03-08T00:02:49;62654.69;;;6.36;75.47
6899;BME280;3488;42.616;23.350;2023-03-08T00:05:18;62651.06;;;6.32;76.14
6899;BME280;3488;42.616;23.350;2023-03-08T00:07:45;62661.84;;;6.40;76.64
6899;BME280;3488;42.616;23.350;2023-03-08T00:10:12;62651.63;;;6.35;77.45
6899;BME280;3488;42.616;23.350;2023-03-08T00:12:39;62662.34;;;6.38;76.44
6899;BME280;3488;42.616;23.350;2023-03-08T00:15:08;62656.78;;;6.40;76.14
6899;BME280;3488;42.616;23.350;2023-03-08T00:17:36;62655.72;;;6.37;76.29
6899;BME280;3488;42.616;23.350;2023-03-08T00:20:04;62648.56;;;6.32;75.96
6899;BME280;3488;42.616;23.350;2023-03-08T00:22:34;62650.16;;;6.36;75.79
6899;BME280;3488;42.616;23.350;2023-03-08T00:25:01;62660.72;;;6.34;75.82
6899;BME280;3488;42.616;23.350;2023-03-08T00:27:28;62659.31;;;6.40;76.05
6899;BME280;3488;42.616;23.350;2023-03-08T00:29:55;62627.41;;;6.12;77.87
6899;BME280;3488;42.616;23.350;2023-03-08T00:32:25;62639.69;;;6.19;77.65
6899;BME280;3488;42.616;23.350;2023-03-08T00:34:53;62622.16;;;6.02;77.89
6899;BME280;3488;42.616;23.350;2023-03-08T00:37:21;62627.94;;;6.12;78.26
6899;BME280;3488;42.616;23.350;2023-03-08T00:39:50;62637.16;;;6.19;77.63
6899;BME280;3488;42.616;23.350;2023-03-08T00:42:17;62617.63;;;6.02;78.58
6899;BME280;3488;42.616;23.350;2023-03-08T00:44:45;62618.66;;;6.03;78.21
6899;BME280;3488;42.616;23.350;2023-03-08T00:47:12;62621.19;;;6.03;78.48
6899;BME280;3488;42.616;23.350;2023-03-08T00:49:41;62622.22;;;6.04;78.77
6899;BME280;3488;42.616;23.350;2023-03-08T00:52:08;62611.41;;;5.94;79.82
6899;BME280;3488;42.616;23.350;2023-03-08T00:54:35;62605.28;;;5.90;80.24
6899;BME280;3488;42.616;23.350;2023-03-08T00:57:02;62597.00;;;5.82;80.47
6899;BME280;3488;42.616;23.350;2023-03-08T00:59:29;62593.34;;;5.76;80.14
6899;BME280;3488;42.616;23.350;2023-03-08T01:01:56;62606.22;;;5.88;80.36
6899;BME280;3488;42.616;23.350;2023-03-08T01:04:23;62603.59;;;5.83;80.57
6899;BME280;3488;42.616;23.350;2023-03-08T01:06:52;62601.03;;;5.81;80.68
6899;BME280;3488;42.616;23.350;2023-03-08T01:09:19;62590.31;;;5.75;81.38
6899;BME280;3488;42.616;23.350;2023-03-08T01:11:46;62577.00;;;5.67;82.37
6899;BME280;3488;42.616;23.350;2023-03-08T01:14:13;62589.78;;;5.75;82.24
6899;BME280;3488;42.616;23.350;2023-03-08T01:16:40;62594.47;;;5.82;82.34
6899;BME280;3488;42.616;23.350;2023-03-08T01:19:08;62595.91;;;5.78;82.58
6899;BME280;3488;42.616;23.350;2023-03-08T01:21:35;62590.25;;;5.73;82.96
6899;BME280;3488;42.616;23.350;2023-03-08T01:24:04;62589.75;;;5.72;83.07
6899;BME280;3488;42.616;23.350;2023-03-08T01:26:32;62582.00;;;5.65;83.02
6899;BME280;3488;42.616;23.350;2023-03-08T01:28:59;62575.34;;;5.61;84.08
6899;BME280;3488;42.616;23.350;2023-03-08T01:31:27;62579.91;;;5.60;84.00
6899;BME280;3488;42.616;23.350;2023-03-08T01:33:55;62575.88;;;5.61;84.67
6899;BME280;3488;42.616;23.350;2023-03-08T01:36:23;62582.53;;;5.65;85.61
6899;BME280;3488;42.616;23.350;2023-03-08T01:38:51;62577.47;;;5.65;86.27
6899;BME280;3488;42.616;23.350;2023-03-08T01:41:21;62596.50;;;5.81;86.37
6899;BME280;3488;42.616;23.350;2023-03-08T01:43:48;62593.28;;;5.73;85.70
6899;BME280;3488;42.616;23.350;2023-03-08T01:46:24;62599.03;;;5.81;85.54
6899;BME280;3488;42.616;23.350;2023-03-08T01:48:54;62599.03;;;5.81;85.21
6899;BME280;3488;42.616;23.350;2023-03-08T01:51:29;62576.84;;;5.60;85.66
6899;BME280;3488;42.616;23.350;2023-03-08T01:53:59;62576.84;;;5.60;85.50
6899;BME280;3488;42.616;23.350;2023-03-08T01:56:28;62586.69;;;5.72;85.57
6899;BME280;3488;42.616;23.350;2023-03-08T01:58:56;62566.50;;;5.47;86.28
6899;BME280;3488;42.616;23.350;2023-03-08T02:01:23;62576.38;;;5.62;86.45
6899;BME280;3488;42.616;23.350;2023-03-08T02:03:50;62580.97;;;5.64;86.38
6899;BME280;3488;42.616;23.350;2023-03-08T02:06:18;62572.78;;;5.58;85.68
6899;BME280;3488;42.616;23.350;2023-03-08T02:08:46;62573.81;;;5.59;85.03
6899;BME280;3488;42.616;23.350;2023-03-08T02:11:14;62572.72;;;5.56;85.62
6899;BME280;3488;42.616;23.350;2023-03-08T02:13:45;62576.28;;;5.57;85.72
6899;BME280;3488;42.616;23.350;2023-03-08T02:16:14;62574.78;;;5.58;86.36
6899;BME280;3488;42.616;23.350;2023-03-08T02:18:51;62571.19;;;5.54;87.09
6899;BME280;3488;42.616;23.350;2023-03-08T02:21:18;62573.31;;;5.59;86.96
6899;BME280;3488;42.616;23.350;2023-03-08T02:23:47;62572.72;;;5.56;86.76
6899;BME280;3488;42.616;23.350;2023-03-08T02:26:14;62567.72;;;5.58;87.20
6899;BME280;3488;42.616;23.350;2023-03-08T02:28:42;62560.97;;;5.49;87.05
6899;BME280;3488;42.616;23.350;2023-03-08T02:31:10;62569.13;;;5.52;87.52
6899;BME280;3488;42.616;23.350;2023-03-08T02:33:37;62558.34;;;5.44;87.45
6899;BME280;3488;42.616;23.350;2023-03-08T02:36:06;62573.25;;;5.56;87.98
6899;BME280;3488;42.616;23.350;2023-03-08T02:38:34;62572.16;;;5.53;87.86
6899;BME280;3488;42.616;23.350;2023-03-08T02:41:03;62564.06;;;5.52;88.07
6899;BME280;3488;42.616;23.350;2023-03-08T02:43:30;62561.91;;;5.45;87.75
6899;BME280;3488;42.616;23.350;2023-03-08T02:45:57;62556.34;;;5.45;88.21
6899;BME280;3488;42.616;23.350;2023-03-08T02:48:24;62560.78;;;5.39;88.38
6899;BME280;3488;42.616;23.350;2023-03-08T02:50:51;62544.47;;;5.31;89.68
6899;BME280;3488;42.616;23.350;2023-03-08T02:53:18;62542.91;;;5.29;89.29
6899;BME280;3488;42.616;23.350;2023-03-08T02:55:45;62544.91;;;5.29;89.00
6899;BME280;3488;42.616;23.350;2023-03-08T02:58:14;62539.22;;;5.21;89.55
6899;BME280;3488;42.616;23.350;2023-03-08T03:00:41;62532.13;;;5.21;90.21
6899;BME280;3488;42.616;23.350;2023-03-08T03:03:08;62513.00;;;4.98;92.23
6899;BME280;3488;42.616;23.350;2023-03-08T03:05:41;62503.31;;;4.93;93.40
6899;BME280;3488;42.616;23.350;2023-03-08T03:08:09;62510.94;;;4.96;94.09
6899;BME280;3488;42.616;23.350;2023-03-08T03:10:36;62501.19;;;4.89;95.10
6899;BME280;3488;42.616;23.350;2023-03-08T03:13:04;62504.69;;;4.87;95.69
6899;BME280;3488;42.616;23.350;2023-03-08T03:15:35;62489.88;;;4.78;96.49
6899;BME280;3488;42.616;23.350;2023-03-08T03:18:03;62492.41;;;4.78;97.11
6899;BME280;3488;42.616;23.350;2023-03-08T03:20:31;62490.88;;;4.76;97.82
6899;BME280;3488;42.616;23.350;2023-03-08T03:22:58;62492.91;;;4.78;98.19
6899;BME280;3488;42.616;23.350;2023-03-08T03:25:25;62499.56;;;4.82;98.43
6899;BME280;3488;42.616;23.350;2023-03-08T03:27:53;62490.28;;;4.73;98.45
6899;BME280;3488;42.616;23.350;2023-03-08T03:30:20;62473.97;;;4.64;99.99
6899;BME280;3488;42.616;23.350;2023-03-08T03:32:49;62481.13;;;4.69;99.98
6899;BME280;3488;42.616;23.350;2023-03-08T03:35:16;62479.13;;;4.69;100.00
6899;BME280;3488;42.616;23.350;2023-03-08T03:37:43;62480.63;;;4.68;100.00
6899;BME280;3488;42.616;23.350;2023-03-08T03:40:11;62484.75;;;4.72;100.00
6899;BME280;3488;42.616;23.350;2023-03-08T03:42:38;62485.75;;;4.73;100.00
6899;BME280;3488;42.616;23.350;2023-03-08T03:45:06;62478.63;;;4.69;100.00
6899;BME280;3488;42.616;23.350;2023-03-08T03:47:33;62483.06;;;4.66;100.00
6899;BME280;3488;42.616;23.350;2023-03-08T03:50:02;62482.06;;;4.65;100.00
6899;BME280;3488;42.616;23.350;2023-03-08T03:52:30;62478.63;;;4.69;100.00
6899;BME280;3488;42.616;23.350;2023-03-08T03:54:57;62471.91;;;4.62;100.00
6899;BME280;3488;42.616;23.350;2023-03-08T03:57:24;62472.88;;;4.61;100.00
6899;BME280;3488;42.616;23.350;2023-03-08T03:59:51;62470.31;;;4.58;100.00
6899;BME280;3488;42.616;23.350;2023-03-08T04:02:18;62471.34;;;4.59;100.00
6899;BME280;3488;42.616;23.350;2023-03-08T04:04:48;62475.81;;;4.56;100.00
6899;BME280;3488;42.616;23.350;2023-03-08T04:07:17;62458.47;;;4.47;100.00
6899;BME280;3488;42.616;23.350;2023-03-08T04:09:44;62461.50;;;4.47;100.00
6899;BME280;3488;42.616;23.350;2023-03-08T04:12:12;62476.00;;;4.64;100.00
6899;BME280;3488;42.616;23.350;2023-03-08T04:14:39;62471.91;;;4.62;100.00
6899;BME280;3488;42.616;23.350;2023-03-08T04:17:06;62461.63;;;4.52;100.00
6899;BME280;3488;42.616;23.350;2023-03-08T04:19:33;62473.94;;;4.62;100.00
6899;BME280;3488;42.616;23.350;2023-03-08T04:22:00;62482.63;;;4.68;100.00
6899;BME280;3488;42.616;23.350;2023-03-08T04:24:29;62484.16;;;4.69;100.00
6899;BME280;3488;42.616;23.350;2023-03-08T04:26:56;62490.28;;;4.73;100.00
6899;BME280;3488;42.616;23.350;2023-03-08T04:29:23;62484.22;;;4.72;100.00
6899;BME280;3488;42.616;23.350;2023-03-08T04:31:50;62484.22;;;4.72;100.00
6899;BME280;3488;42.616;23.350;2023-03-08T04:34:17;62494.50;;;4.82;100.00
6899;BME280;3488;42.616;23.350;2023-03-08T04:36:44;62508.88;;;4.94;100.00
6899;BME280;3488;42.616;23.350;2023-03-08T04:39:11;62495.56;;;4.83;100.00
6899;BME280;3488;42.616;23.350;2023-03-08T04:41:39;62483.06;;;4.66;100.00
6899;BME280;3488;42.616;23.350;2023-03-08T04:44:07;62479.53;;;4.65;100.00
6899;BME280;3488;42.616;23.350;2023-03-08T04:46:34;62480.56;;;4.66;100.00
6899;BME280;3488;42.616;23.350;2023-03-08T04:49:00;62485.25;;;4.73;100.00
6899;BME280;3488;42.616;23.350;2023-03-08T04:51:27;62491.31;;;4.74;100.00
6899;BME280;3488;42.616;23.350;2023-03-08T04:53:55;62480.06;;;4.65;100.00
6899;BME280;3488;42.616;23.350;2023-03-08T04:56:22;62476.00;;;4.64;100.00
6899;BME280;3488;42.616;23.350;2023-03-08T04:58:50;62480.06;;;4.65;100.00
6899;BME280;3488;42.616;23.350;2023-03-08T05:01:18;62476.00;;;4.64;100.00
6899;BME280;3488;42.616;23.350;2023-03-08T05:03:46;62483.66;;;4.69;100.00
6899;BME280;3488;42.616;23.350;2023-03-08T05:06:14;62480.56;;;4.66;100.00
6899;BME280;3488;42.616;23.350;2023-03-08T05:08:41;62483.22;;;4.73;100.00
6899;BME280;3488;42.616;23.350;2023-03-08T05:11:09;62487.25;;;4.72;100.00
6899;BME280;3488;42.616;23.350;2023-03-08T05:13:37;62481.13;;;4.69;100.00
6899;BME280;3488;42.616;23.350;2023-03-08T05:16:06;62489.81;;;4.75;100.00
6899;BME280;3488;42.616;23.350;2023-03-08T05:18:34;62474.38;;;4.60;100.00
6899;BME280;3488;42.616;23.350;2023-03-08T05:21:03;62479.13;;;4.69;100.00
6899;BME280;3488;42.616;23.350;2023-03-08T05:23:31;62487.25;;;4.72;100.00
6899;BME280;3488;42.616;23.350;2023-03-08T05:25:59;62500.16;;;4.88;100.00
6899;BME280;3488;42.616;23.350;2023-03-08T05:28:29;62522.25;;;5.07;100.00
6899;BME280;3488;42.616;23.350;2023-03-08T05:31:00;62526.94;;;5.14;100.00
6899;BME280;3488;42.616;23.350;2023-03-08T05:33:29;62530.56;;;5.17;100.00
6899;BME280;3488;42.616;23.350;2023-03-08T05:35:57;62544.91;;;5.29;100.00
6899;BME280;3488;42.616;23.350;2023-03-08T05:38:24;62551.03;;;5.32;100.00
6899;BME280;3488;42.616;23.350;2023-03-08T05:40:51;62547.53;;;5.34;100.00
6899;BME280;3488;42.616;23.350;2023-03-08T05:43:19;62543.41;;;5.30;100.00
6899;BME280;3488;42.616;23.350;2023-03-08T05:45:56;62546.00;;;5.32;100.00
6899;BME280;3488;42.616;23.350;2023-03-08T05:48:24;62555.28;;;5.41;100.00
6899;BME280;3488;42.616;23.350;2023-03-08T05:50:52;62552.13;;;5.36;100.00
6899;BME280;3488;42.616;23.350;2023-03-08T05:53:20;62551.59;;;5.35;100.00
6899;BME280;3488;42.616;23.350;2023-03-08T05:55:47;62537.66;;;5.19;100.00
6899;BME280;3488;42.616;23.350;2023-03-08T05:58:14;62546.47;;;5.30;100.00
6899;BME280;3488;42.616;23.350;2023-03-08T06:00:41;62547.53;;;5.34;100.00
6899;BME280;3488;42.616;23.350;2023-03-08T06:03:08;62552.13;;;5.36;100.00
6899;BME280;3488;42.616;23.350;2023-03-08T06:05:35;62555.78;;;5.42;100.00
6899;BME280;3488;42.616;23.350;2023-03-08T06:08:04;62568.63;;;5.52;100.00
6899;BME280;3488;42.616;23.350;2023-03-08T06:10:31;62582.53;;;5.65;100.00
6899;BME280;3488;42.616;23.350;2023-03-08T06:13:01;62583.59;;;5.69;100.00
6899;BME280;3488;42.616;23.350;2023-03-08T06:15:29;62601.59;;;5.84;100.00
6899;BME280;3488;42.616;23.350;2023-03-08T06:17:56;62602.69;;;5.88;100.00
6899;BME280;3488;42.616;23.350;2023-03-08T06:20:22;62595.44;;;5.80;100.00
6899;BME280;3488;42.616;23.350;2023-03-08T06:22:49;62612.94;;;5.95;100.00
6899;BME280;3488;42.616;23.350;2023-03-08T06:25:17;62632.00;;;6.14;100.00
6899;BME280;3488;42.616;23.350;2023-03-08T06:27:44;62644.38;;;6.26;100.00
6899;BME280;3488;42.616;23.350;2023-03-08T06:30:12;62656.28;;;6.40;99.85
6899;BME280;3488;42.616;23.350;2023-03-08T06:32:39;62655.25;;;6.39;98.82
6899;BME280;3488;42.616;23.350;2023-03-08T06:35:07;62654.78;;;6.41;98.37
6899;BME280;3488;42.616;23.350;2023-03-08T06:37:35;62665.00;;;6.46;98.16
6899;BME280;3488;42.616;23.350;2023-03-08T06:40:03;62659.38;;;6.43;97.66
6899;BME280;3488;42.616;23.350;2023-03-08T06:42:31;62647.06;;;6.33;97.98
6899;BME280;3488;42.616;23.350;2023-03-08T06:44:58;62654.75;;;6.38;97.65
6899;BME280;3488;42.616;23.350;2023-03-08T06:47:25;62667.59;;;6.48;97.08
6899;BME280;3488;42.616;23.350;2023-03-08T06:49:55;62656.91;;;6.45;96.81
6899;BME280;3488;42.616;23.350;2023-03-08T06:52:22;62648.59;;;6.35;97.28
6899;BME280;3488;42.616;23.350;2023-03-08T06:54:49;62658.34;;;6.42;97.73
6899;BME280;3488;42.616;23.350;2023-03-08T06:57:16;62665.06;;;6.48;97.39
6899;BME280;3488;42.616;23.350;2023-03-08T06:59:44;62653.75;;;6.40;97.25
6899;BME280;3488;42.616;23.350;2023-03-08T07:02:11;62656.22;;;6.37;97.38
6899;BME280;3488;42.616;23.350;2023-03-08T07:04:39;62663.53;;;6.49;96.92
6899;BME280;3488;42.616;23.350;2023-03-08T07:07:05;62671.19;;;6.52;95.97
6899;BME280;3488;42.616;23.350;2023-03-08T07:09:33;62676.75;;;6.52;96.29
6899;BME280;3488;42.616;23.350;2023-03-08T07:12:00;62682.53;;;6.63;96.10
6899;BME280;3488;42.616;23.350;2023-03-08T07:14:27;62692.88;;;6.75;95.09
6899;BME280;3488;42.616;23.350;2023-03-08T07:16:55;62705.81;;;6.90;94.46
6899;BME280;3488;42.616;23.350;2023-03-08T07:19:22;62731.00;;;7.10;93.72
6899;BME280;3488;42.616;23.350;2023-03-08T07:21:49;62750.63;;;7.29;92.73
6899;BME280;3488;42.616;23.350;2023-03-08T07:24:16;62766.19;;;7.49;91.59
6899;BME280;3488;42.616;23.350;2023-03-08T07:26:43;62789.38;;;7.69;89.82
6899;BME280;3488;42.616;23.350;2023-03-08T07:29:10;62794.44;;;7.69;89.75
6899;BME280;3488;42.616;23.350;2023-03-08T07:31:37;62819.22;;;7.93;88.77
6899;BME280;3488;42.616;23.350;2023-03-08T07:34:05;62863.19;;;8.39;85.49
6899;BME280;3488;42.616;23.350;2023-03-08T07:36:32;62892.56;;;8.65;81.35
6899;BME280;3488;42.616;23.350;2023-03-08T07:38:59;62907.59;;;8.82;79.42
6899;BME280;3488;42.616;23.350;2023-03-08T07:41:26;62939.59;;;9.10;77.86
6899;BME280;3488;42.616;23.350;2023-03-08T07:43:56;62945.88;;;9.21;77.19
6899;BME280;3488;42.616;23.350;2023-03-08T07:46:23;62967.56;;;9.40;75.86
6899;BME280;3488;42.616;23.350;2023-03-08T07:48:51;62949.56;;;9.27;76.33
6899;BME280;3488;42.616;23.350;2023-03-08T07:51:20;62971.19;;;9.44;75.65
6899;BME280;3488;42.616;23.350;2023-03-08T07:53:47;63006.38;;;9.80;74.59
6899;BME280;3488;42.616;23.350;2023-03-08T07:56:13;63007.97;;;9.84;72.17
6899;BME280;3488;42.616;23.350;2023-03-08T07:58:41;63014.13;;;9.88;70.38
6899;BME280;3488;42.616;23.350;2023-03-08T08:01:08;63023.88;;;9.92;70.85
6899;BME280;3488;42.616;23.350;2023-03-08T08:03:35;63037.44;;;10.10;70.57
6899;BME280;3488;42.616;23.350;2023-03-08T08:06:03;63045.13;;;10.13;70.12
6899;BME280;3488;42.616;23.350;2023-03-08T08:08:32;63047.22;;;10.17;67.72
6899;BME280;3488;42.616;23.350;2023-03-08T08:10:59;63046.16;;;10.16;69.05
6899;BME280;3488;42.616;23.350;2023-03-08T08:13:27;63043.63;;;10.16;69.63
6899;BME280;3488;42.616;23.350;2023-03-08T08:15:58;63058.09;;;10.28;67.94
6899;BME280;3488;42.616;23.350;2023-03-08T08:18:25;63062.25;;;10.34;67.46
6899;BME280;3488;42.616;23.350;2023-03-08T08:20:59;63097.84;;;10.62;66.40
6899;BME280;3488;42.616;23.350;2023-03-08T08:23:26;63070.50;;;10.40;65.60
6899;BME280;3488;42.616;23.350;2023-03-08T08:25:54;63091.19;;;10.60;65.35
6899;BME280;3488;42.616;23.350;2023-03-08T08:28:22;63072.06;;;10.41;65.72
6899;BME280;3488;42.616;23.350;2023-03-08T08:30:57;63049.31;;;10.22;65.74
6899;BME280;3488;42.616;23.350;2023-03-08T08:33:25;63025.53;;;9.99;67.56
6899;BME280;3488;42.616;23.350;2023-03-08T08:35:53;62987.69;;;9.57;69.98
6899;BME280;3488;42.616;23.350;2023-03-08T08:38:19;63049.84;;;10.22;69.46
6899;BME280;3488;42.616;23.350;2023-03-08T08:40:47;63089.59;;;10.56;67.35
6899;BME280;3488;42.616;23.350;2023-03-08T08:43:16;63118.63;;;10.87;65.19
6899;BME280;3488;42.616;23.350;2023-03-08T08:45:43;63138.84;;;11.09;62.93
6899;BME280;3488;42.616;23.350;2023-03-08T08:48:10;63132.13;;;11.02;63.42
6899;BME280;3488;42.616;23.350;2023-03-08T08:50:38;63162.69;;;11.32;61.19
6899;BME280;3488;42.616;23.350;2023-03-08T08:53:05;63177.66;;;11.44;60.55
6899;BME280;3488;42.616;23.350;2023-03-08T08:55:33;63198.94;;;11.67;59.31
6899;BME280;3488;42.616;23.350;2023-03-08T08:58:00;63226.91;;;11.94;58.62
6899;BME280;3488;42.616;23.350;2023-03-08T09:00:30;63262.66;;;12.29;56.74
6899;BME280;3488;42.616;23.350;2023-03-08T09:02:57;63246.13;;;12.15;55.94
6899;BME280;3488;42.616;23.350;2023-03-08T09:05:24;63235.22;;;12.02;57.57
6899;BME280;3488;42.616;23.350;2023-03-08T09:07:52;63207.16;;;11.70;58.27
6899;BME280;3488;42.616;23.350;2023-03-08T09:10:19;63256.41;;;12.20;58.13
6899;BME280;3488;42.616;23.350;2023-03-08T09:12:46;63295.34;;;12.60;56.61
6899;BME280;3488;42.616;23.350;2023-03-08T09:15:13;63272.00;;;12.38;56.87
6899;BME280;3488;42.616;23.350;2023-03-08T09:17:42;63308.78;;;12.71;56.03
6899;BME280;3488;42.616;23.350;2023-03-08T09:20:10;63311.41;;;12.76;53.67
6899;BME280;3488;42.616;23.350;2023-03-08T09:22:37;63245.03;;;12.09;56.09
6899;BME280;3488;42.616;23.350;2023-03-08T09:25:06;63275.69;;;12.44;55.60
6899;BME280;3488;42.616;23.350;2023-03-08T09:27:35;63251.75;;;12.16;54.63
6899;BME280;3488;42.616;23.350;2023-03-08T09:30:02;63250.22;;;12.17;55.78
6899;BME280;3488;42.616;23.350;2023-03-08T09:32:31;63260.03;;;12.21;54.39
6899;BME280;3488;42.616;23.350;2023-03-08T09:35:00;63267.78;;;12.29;55.16
6899;BME280;3488;42.616;23.350;2023-03-08T09:37:29;63306.69;;;12.69;54.28
6899;BME280;3488;42.616;23.350;2023-03-08T09:39:56;63266.22;;;12.27;54.00
6899;BME280;3488;42.616;23.350;2023-03-08T09:42:25;63263.13;;;12.24;56.61
6899;BME280;3488;42.616;23.350;2023-03-08T09:45:05;63303.63;;;12.68;54.34
6899;BME280;3488;42.616;23.350;2023-03-08T09:47:37;63331.63;;;12.96;53.65
6899;BME280;3488;42.616;23.350;2023-03-08T09:50:20;63319.69;;;12.84;53.49
6899;BME280;3488;42.616;23.350;2023-03-08T09:52:54;63280.75;;;12.41;53.90
6899;BME280;3488;42.616;23.350;2023-03-08T09:55:26;63228.44;;;11.93;55.12
6899;BME280;3488;42.616;23.350;2023-03-08T09:57:57;63269.91;;;12.33;53.96
6899;BME280;3488;42.616;23.350;2023-03-08T10:00:28;63224.81;;;11.90;55.45
6899;BME280;3488;42.616;23.350;2023-03-08T10:03:07;63228.50;;;11.98;55.40
6899;BME280;3488;42.616;23.350;2023-03-08T10:05:45;63244.56;;;12.14;54.63
6899;BME280;3488;42.616;23.350;2023-03-08T10:08:17;63276.16;;;12.42;53.72
6899;BME280;3488;42.616;23.350;2023-03-08T10:10:50;63281.28;;;12.44;52.68
6899;BME280;3488;42.616;23.350;2023-03-08T10:13:28;63306.19;;;12.68;51.58
6899;BME280;3488;42.616;23.350;2023-03-08T10:16:05;63321.75;;;12.84;52.07
6899;BME280;3488;42.616;23.350;2023-03-08T10:18:41;63327.41;;;12.87;51.79
6899;BME280;3488;42.616;23.350;2023-03-08T10:21:14;63337.38;;;13.04;51.54
6899;BME280;3488;42.616;23.350;2023-03-08T10:23:45;63374.63;;;13.32;49.67
6899;BME280;3488;42.616;23.350;2023-03-08T10:26:13;63399.00;;;13.56;49.61
6899;BME280;3488;42.616;23.350;2023-03-08T10:28:42;63411.47;;;13.68;49.73
6899;BME280;3488;42.616;23.350;2023-03-08T10:31:18;63402.19;;;13.64;48.30
6899;BME280;3488;42.616;23.350;2023-03-08T10:33:47;63384.00;;;13.44;48.56
6899;BME280;3488;42.616;23.350;2023-03-08T10:36:20;63371.56;;;13.32;49.32
6899;BME280;3488;42.616;23.350;2023-03-08T10:39:04;63393.81;;;13.51;49.34
6899;BME280;3488;42.616;23.350;2023-03-08T10:41:38;63432.75;;;13.88;48.76
6899;BME280;3488;42.616;23.350;2023-03-08T10:44:12;63431.22;;;13.89;48.25
6899;BME280;3488;42.616;23.350;2023-03-08T10:46:45;63429.66;;;13.88;48.20
6899;BME280;3488;42.616;23.350;2023-03-08T10:49:16;63428.63;;;13.87;47.94
6899;BME280;3488;42.616;23.350;2023-03-08T10:51:55;63415.19;;;13.79;48.07
6899;BME280;3488;42.616;23.350;2023-03-08T10:54:23;63416.72;;;13.78;48.45
6899;BME280;3488;42.616;23.350;2023-03-08T10:56:53;63416.19;;;13.75;48.72
6899;BME280;3488;42.616;23.350;2023-03-08T10:59:23;63436.44;;;13.97;47.69
6899;BME280;3488;42.616;23.350;2023-03-08T11:01:58;63455.63;;;14.13;47.98
6899;BME280;3488;42.616;23.350;2023-03-08T11:04:29;63490.88;;;14.42;48.39
6899;BME280;3488;42.616;23.350;2023-03-08T11:07:09;63531.50;;;14.89;47.83
6899;BME280;3488;42.616;23.350;2023-03-08T11:09:37;63524.16;;;14.77;46.59
6899;BME280;3488;42.616;23.350;2023-03-08T11:12:04;63521.63;;;14.79;46.09
6899;BME280;3488;42.616;23.350;2023-03-08T11:14:31;63517.94;;;14.73;46.27
6899;BME280;3488;42.616;23.350;2023-03-08T11:17:09;63535.13;;;14.92;45.09
6899;BME280;3488;42.616;23.350;2023-03-08T11:19:46;63562.66;;;15.19;44.57
6899;BME280;3488;42.616;23.350;2023-03-08T11:22:28;63592.25;;;15.45;44.33
6899;BME280;3488;42.616;23.350;2023-03-08T11:25:12;63607.31;;;15.57;44.63
6899;BME280;3488;42.616;23.350;2023-03-08T11:30:34;63530.38;;;14.83;43.87
6899;BME280;3488;42.616;23.350;2023-03-08T11:33:36;63469.69;;;14.29;45.47
6899;BME280;3488;42.616;23.350;2023-03-08T11:36:11;63493.03;;;14.49;44.86
6899;BME280;3488;42.616;23.350;2023-03-08T11:38:42;63490.94;;;14.47;45.65
6899;BME280;3488;42.616;23.350;2023-03-08T11:41:19;63502.88;;;14.56;44.92
6899;BME280;3488;42.616;23.350;2023-03-08T11:44:16;63503.94;;;14.60;44.40
6899;BME280;3488;42.616;23.350;2023-03-08T11:46:57;63494.59;;;14.51;44.21
6899;BME280;3488;42.616;23.350;2023-03-08T11:49:41;63502.41;;;14.61;44.16
6899;BME280;3488;42.616;23.350;2023-03-08T11:52:19;63511.22;;;14.69;44.55
6899;BME280;3488;42.616;23.350;2023-03-08T11:55:00;63557.84;;;15.04;44.98
6899;BME280;3488;42.616;23.350;2023-03-08T11:57:31;63575.06;;;15.26;43.55
6899;BME280;3488;42.616;23.350;2023-03-08T12:00:04;63570.94;;;15.25;44.47
6899;BME280;3488;42.616;23.350;2023-03-08T12:02:40;63614.13;;;15.69;43.49
6899;BME280;3488;42.616;23.350;2023-03-08T12:05:13;63627.66;;;15.82;42.14
6899;BME280;3488;42.616;23.350;2023-03-08T12:07:45;63629.72;;;15.84;43.54
6899;BME280;3488;42.616;23.350;2023-03-08T12:10:20;63608.91;;;15.61;42.94
6899;BME280;3488;42.616;23.350;2023-03-08T12:12:51;63580.28;;;15.34;43.10
6899;BME280;3488;42.616;23.350;2023-03-08T12:15:25;63539.25;;;14.94;42.72
6899;BME280;3488;42.616;23.350;2023-03-08T12:17:58;63518.50;;;14.76;43.80
6899;BME280;3488;42.616;23.350;2023-03-08T12:20:30;63559.47;;;15.11;43.34
6899;BME280;3488;42.616;23.350;2023-03-08T12:23:07;63587.59;;;15.41;43.06
6899;BME280;3488;42.616;23.350;2023-03-08T12:25:40;63629.75;;;15.86;41.75
6899;BME280;3488;42.616;23.350;2023-03-08T12:28:14;63668.16;;;16.18;42.36
6899;BME280;3488;42.616;23.350;2023-03-08T12:30:57;63666.09;;;16.19;42.11
6899;BME280;3488;42.616;23.350;2023-03-08T12:33:27;63724.41;;;16.75;40.88
6899;BME280;3488;42.616;23.350;2023-03-08T12:36:00;63737.91;;;16.86;38.84
6899;BME280;3488;42.616;23.350;2023-03-08T12:38:33;63746.75;;;16.97;37.95
6899;BME280;3488;42.616;23.350;2023-03-08T12:41:03;63741.56;;;16.92;37.72
6899;BME280;3488;42.616;23.350;2023-03-08T12:43:33;63740.47;;;16.88;38.41
6899;BME280;3488;42.616;23.350;2023-03-08T12:46:03;63761.84;;;17.11;37.55
6899;BME280;3488;42.616;23.350;2023-03-08T12:48:31;63757.13;;;17.04;37.15
6899;BME280;3488;42.616;23.350;2023-03-08T12:51:06;63782.13;;;17.28;37.33
6899;BME280;3488;42.616;23.350;2023-03-08T12:53:38;63797.22;;;17.43;36.58
6899;BME280;3488;42.616;23.350;2023-03-08T12:56:21;63681.72;;;16.34;37.89
6899;BME280;3488;42.616;23.350;2023-03-08T12:58:52;63682.22;;;16.32;39.26
6899;BME280;3488;42.616;23.350;2023-03-08T13:01:33;63710.78;;;16.57;39.55
6899;BME280;3488;42.616;23.350;2023-03-08T13:04:01;63725.97;;;16.79;40.40
6899;BME280;3488;42.616;23.350;2023-03-08T13:09:46;63749.38;;;16.99;40.89
6899;BME280;3488;42.616;23.350;2023-03-08T13:12:28;63768.56;;;17.13;39.42
6899;BME280;3488;42.616;23.350;2023-03-08T13:15:05;63703.56;;;16.53;37.96
6899;BME280;3488;42.616;23.350;2023-03-08T13:17:37;63677.50;;;16.25;37.96
6899;BME280;3488;42.616;23.350;2023-03-08T13:20:16;63669.19;;;16.19;38.22
6899;BME280;3488;42.616;23.350;2023-03-08T13:22:52;63703.56;;;16.55;37.92
6899;BME280;3488;42.616;23.350;2023-03-08T13:25:37;63668.16;;;16.18;39.58
6899;BME280;3488;42.616;23.350;2023-03-08T13:28:09;63632.78;;;15.82;41.25
6899;BME280;3488;42.616;23.350;2023-03-08T13:30:42;63637.44;;;15.86;40.60
6899;BME280;3488;42.616;23.350;2023-03-08T13:33:14;63644.19;;;15.93;40.84